sensor_id;sensor_type;location;lat;lon;timestamp;P1;durP1;ratioP1;P2;durP2;ratioP2
13704;SDS011;6924;52.122;9.952;2024-01-27T00:01:33;8.07;;;1.10;;
13704;SDS011;6924;52.122;9.952;2024-01-27T00:04:00;8.00;;;1.67;;
13704;SDS011;6924;52.122;9.952;2024-01-27T00:06:26;4.87;;;1.00;;
13704;SDS011;6924;52.122;9.952;2024-01-27T00:08:54;9.57;;;1.67;;
13704;SDS011;6924;52.122;9.952;2024-01-27T00:11:21;8.50;;;1.60;;
13704;SDS011;6924;52.122;9.952;2024-01-27T00:13:49;9.07;;;2.57;;
13704;SDS011;6924;52.122;9.952;2024-01-27T00:16:16;8.43;;;1.57;;
13704;SDS011;6924;52.122;9.952;2024-01-27T00:18:42;5.93;;;1.30;;
13704;SDS011;6924;52.122;9.952;2024-01-27T00:21:08;15.20;;;1.93;;
13704;SDS011;6924;52.122;9.952;2024-01-27T00:23:35;9.30;;;1.17;;
13704;SDS011;6924;52.122;9.952;2024-01-27T00:26:03;6.30;;;1.33;;
13704;SDS011;6924;52.122;9.952;2024-01-27T00:28:29;11.13;;;1.50;;
13704;SDS011;6924;52.122;9.952;2024-01-27T00:30:56;4.80;;;1.30;;
13704;SDS011;6924;52.122;9.952;2024-01-27T00:33:22;5.60;;;1.60;;
13704;SDS011;6924;52.122;9.952;2024-01-27T00:35:49;7.23;;;1.83;;
13704;SDS011;6924;52.122;9.952;2024-01-27T00:38:15;4.53;;;1.30;;
13704;SDS011;6924;52.122;9.952;2024-01-27T00:40:41;8.43;;;1.93;;
13704;SDS011;6924;52.122;9.952;2024-01-27T00:43:09;5.50;;;0.87;;
13704;SDS011;6924;52.122;9.952;2024-01-27T00:45:36;8.20;;;2.00;;
13704;SDS011;6924;52.122;9.952;2024-01-27T00:48:02;8.97;;;1.57;;
13704;SDS011;6924;52.122;9.952;2024-01-27T00:50:29;7.80;;;1.27;;
13704;SDS011;6924;52.122;9.952;2024-01-27T00:52:55;4.80;;;1.50;;
13704;SDS011;6924;52.122;9.952;2024-01-27T00:55:21;5.50;;;1.57;;
13704;SDS011;6924;52.122;9.952;2024-01-27T00:57:48;6.40;;;1.13;;
13704;SDS011;6924;52.122;9.952;2024-01-27T01:00:16;6.87;;;1.60;;
13704;SDS011;6924;52.122;9.952;2024-01-27T01:02:43;8.90;;;1.47;;
13704;SDS011;6924;52.122;9.952;2024-01-27T01:05:09;11.70;;;1.20;;
13704;SDS011;6924;52.122;9.952;2024-01-27T01:07:35;15.60;;;3.13;;
13704;SDS011;6924;52.122;9.952;2024-01-27T01:10:02;8.73;;;1.10;;
13704;SDS011;6924;52.122;9.952;2024-01-27T01:12:29;8.33;;;1.50;;
13704;SDS011;6924;52.122;9.952;2024-01-27T01:14:55;6.43;;;1.40;;
13704;SDS011;6924;52.122;9.952;2024-01-27T01:17:23;11.30;;;1.87;;
13704;SDS011;6924;52.122;9.952;2024-01-27T01:19:49;10.73;;;1.73;;
13704;SDS011;6924;52.122;9.952;2024-01-27T01:22:16;4.60;;;1.63;;
13704;SDS011;6924;52.122;9.952;2024-01-27T01:24:42;8.80;;;1.57;;
13704;SDS011;6924;52.122;9.952;2024-01-27T01:27:08;11.33;;;1.60;;
13704;SDS011;6924;52.122;9.952;2024-01-27T01:29:35;6.63;;;1.47;;
13704;SDS011;6924;52.122;9.952;2024-01-27T01:32:01;11.37;;;1.80;;
13704;SDS011;6924;52.122;9.952;2024-01-27T01:34:29;6.33;;;1.77;;
13704;SDS011;6924;52.122;9.952;2024-01-27T01:36:56;8.30;;;1.73;;
13704;SDS011;6924;52.122;9.952;2024-01-27T01:39:23;7.43;;;1.27;;
13704;SDS011;6924;52.122;9.952;2024-01-27T01:41:49;5.10;;;1.67;;
13704;SDS011;6924;52.122;9.952;2024-01-27T01:44:16;8.03;;;0.93;;
13704;SDS011;6924;52.122;9.952;2024-01-27T01:46:42;4.33;;;1.53;;
13704;SDS011;6924;52.122;9.952;2024-01-27T01:49:08;12.47;;;1.37;;
13704;SDS011;6924;52.122;9.952;2024-01-27T01:51:37;6.10;;;1.57;;
13704;SDS011;6924;52.122;9.952;2024-01-27T01:54:03;9.50;;;1.47;;
13704;SDS011;6924;52.122;9.952;2024-01-27T01:56:30;6.43;;;1.80;;
13704;SDS011;6924;52.122;9.952;2024-01-27T01:58:57;8.27;;;2.10;;
13704;SDS011;6924;52.122;9.952;2024-01-27T02:01:23;8.97;;;1.63;;
13704;SDS011;6924;52.122;9.952;2024-01-27T02:03:53;7.97;;;1.90;;
13704;SDS011;6924;52.122;9.952;2024-01-27T02:06:19;6.57;;;1.90;;
13704;SDS011;6924;52.122;9.952;2024-01-27T02:08:47;8.27;;;2.00;;
13704;SDS011;6924;52.122;9.952;2024-01-27T02:11:14;7.77;;;1.20;;
13704;SDS011;6924;52.122;9.952;2024-01-27T02:13:41;7.07;;;1.10;;
13704;SDS011;6924;52.122;9.952;2024-01-27T02:16:07;4.07;;;1.70;;
13704;SDS011;6924;52.122;9.952;2024-01-27T02:18:34;9.13;;;2.07;;
13704;SDS011;6924;52.122;9.952;2024-01-27T02:21:00;11.47;;;2.10;;
13704;SDS011;6924;52.122;9.952;2024-01-27T02:23:27;8.57;;;2.23;;
13704;SDS011;6924;52.122;9.952;2024-01-27T02:25:54;4.20;;;1.50;;
13704;SDS011;6924;52.122;9.952;2024-01-27T02:28:21;5.77;;;1.27;;
13704;SDS011;6924;52.122;9.952;2024-01-27T02:30:48;5.63;;;1.63;;
13704;SDS011;6924;52.122;9.952;2024-01-27T02:33:15;7.67;;;1.83;;
13704;SDS011;6924;52.122;9.952;2024-01-27T02:35:41;8.00;;;1.80;;
13704;SDS011;6924;52.122;9.952;2024-01-27T02:38:08;5.30;;;1.50;;
13704;SDS011;6924;52.122;9.952;2024-01-27T02:40:35;8.30;;;2.53;;
13704;SDS011;6924;52.122;9.952;2024-01-27T02:43:03;8.00;;;1.87;;
13704;SDS011;6924;52.122;9.952;2024-01-27T02:45:29;8.13;;;2.00;;
13704;SDS011;6924;52.122;9.952;2024-01-27T02:47:56;5.93;;;2.00;;
13704;SDS011;6924;52.122;9.952;2024-01-27T02:50:22;7.90;;;2.00;;
13704;SDS011;6924;52.122;9.952;2024-01-27T02:52:48;8.07;;;1.53;;
13704;SDS011;6924;52.122;9.952;2024-01-27T02:55:15;12.87;;;2.40;;
13704;SDS011;6924;52.122;9.952;2024-01-27T02:57:41;8.90;;;1.70;;
13704;SDS011;6924;52.122;9.952;2024-01-27T03:00:10;7.57;;;1.60;;
13704;SDS011;6924;52.122;9.952;2024-01-27T03:02:36;10.50;;;2.13;;
13704;SDS011;6924;52.122;9.952;2024-01-27T03:05:03;12.23;;;1.67;;
13704;SDS011;6924;52.122;9.952;2024-01-27T03:07:30;7.90;;;2.73;;
13704;SDS011;6924;52.122;9.952;2024-01-27T03:09:57;7.23;;;1.67;;
13704;SDS011;6924;52.122;9.952;2024-01-27T03:12:23;9.43;;;1.93;;
13704;SDS011;6924;52.122;9.952;2024-01-27T03:14:49;9.10;;;1.60;;
13704;SDS011;6924;52.122;9.952;2024-01-27T03:17:19;6.13;;;2.00;;
13704;SDS011;6924;52.122;9.952;2024-01-27T03:19:46;13.23;;;1.90;;
13704;SDS011;6924;52.122;9.952;2024-01-27T03:22:12;4.43;;;1.57;;
13704;SDS011;6924;52.122;9.952;2024-01-27T03:24:38;8.37;;;1.90;;
13704;SDS011;6924;52.122;9.952;2024-01-27T03:27:05;4.67;;;1.80;;
13704;SDS011;6924;52.122;9.952;2024-01-27T03:29:31;10.53;;;2.30;;
13704;SDS011;6924;52.122;9.952;2024-01-27T03:31:58;5.60;;;1.87;;
13704;SDS011;6924;52.122;9.952;2024-01-27T03:34:25;18.97;;;2.47;;
13704;SDS011;6924;52.122;9.952;2024-01-27T03:36:53;6.60;;;1.80;;
13704;SDS011;6924;52.122;9.952;2024-01-27T03:39:19;13.27;;;2.27;;
13704;SDS011;6924;52.122;9.952;2024-01-27T03:41:46;7.17;;;2.13;;
13704;SDS011;6924;52.122;9.952;2024-01-27T03:44:12;7.47;;;1.87;;
13704;SDS011;6924;52.122;9.952;2024-01-27T03:46:38;8.07;;;1.63;;
13704;SDS011;6924;52.122;9.952;2024-01-27T03:49:05;8.73;;;2.40;;
13704;SDS011;6924;52.122;9.952;2024-01-27T03:51:33;8.90;;;1.50;;
13704;SDS011;6924;52.122;9.952;2024-01-27T03:53:59;12.73;;;2.30;;
13704;SDS011;6924;52.122;9.952;2024-01-27T03:56:26;6.63;;;1.93;;
13704;SDS011;6924;52.122;9.952;2024-01-27T03:58:52;11.80;;;2.50;;
13704;SDS011;6924;52.122;9.952;2024-01-27T04:01:18;6.50;;;2.30;;
13704;SDS011;6924;52.122;9.952;2024-01-27T04:03:45;8.83;;;2.23;;
13704;SDS011;6924;52.122;9.952;2024-01-27T04:06:11;15.13;;;2.60;;
13704;SDS011;6924;52.122;9.952;2024-01-27T04:08:40;7.07;;;2.63;;
13704;SDS011;6924;52.122;9.952;2024-01-27T04:11:08;5.57;;;1.73;;
13704;SDS011;6924;52.122;9.952;2024-01-27T04:13:35;7.50;;;1.83;;
13704;SDS011;6924;52.122;9.952;2024-01-27T04:16:02;7.57;;;2.00;;
13704;SDS011;6924;52.122;9.952;2024-01-27T04:18:28;12.00;;;2.30;;
13704;SDS011;6924;52.122;9.952;2024-01-27T04:20:55;7.33;;;2.10;;
13704;SDS011;6924;52.122;9.952;2024-01-27T04:23:22;9.70;;;2.60;;
13704;SDS011;6924;52.122;9.952;2024-01-27T04:25:49;6.23;;;2.23;;
13704;SDS011;6924;52.122;9.952;2024-01-27T04:28:16;6.57;;;1.87;;
13704;SDS011;6924;52.122;9.952;2024-01-27T04:30:43;11.87;;;3.53;;
13704;SDS011;6924;52.122;9.952;2024-01-27T04:33:09;8.60;;;2.53;;
13704;SDS011;6924;52.122;9.952;2024-01-27T04:35:37;7.10;;;2.60;;
13704;SDS011;6924;52.122;9.952;2024-01-27T04:38:04;10.33;;;2.57;;
13704;SDS011;6924;52.122;9.952;2024-01-27T04:40:30;5.73;;;1.70;;
13704;SDS011;6924;52.122;9.952;2024-01-27T04:42:59;3.80;;;1.90;;
13704;SDS011;6924;52.122;9.952;2024-01-27T04:45:25;11.63;;;3.03;;
13704;SDS011;6924;52.122;9.952;2024-01-27T04:47:52;6.47;;;1.73;;
13704;SDS011;6924;52.122;9.952;2024-01-27T04:50:18;11.07;;;2.93;;
13704;SDS011;6924;52.122;9.952;2024-01-27T04:52:45;7.23;;;2.50;;
13704;SDS011;6924;52.122;9.952;2024-01-27T04:55:11;14.53;;;2.53;;
13704;SDS011;6924;52.122;9.952;2024-01-27T04:57:38;11.27;;;2.37;;
13704;SDS011;6924;52.122;9.952;2024-01-27T05:00:06;8.00;;;2.47;;
13704;SDS011;6924;52.122;9.952;2024-01-27T05:02:38;5.73;;;2.00;;
13704;SDS011;6924;52.122;9.952;2024-01-27T05:05:05;10.20;;;3.10;;
13704;SDS011;6924;52.122;9.952;2024-01-27T05:07:32;10.57;;;2.10;;
13704;SDS011;6924;52.122;9.952;2024-01-27T05:09:58;7.87;;;2.13;;
13704;SDS011;6924;52.122;9.952;2024-01-27T05:12:24;8.53;;;2.67;;
13704;SDS011;6924;52.122;9.952;2024-01-27T05:14:51;6.70;;;2.27;;
13704;SDS011;6924;52.122;9.952;2024-01-27T05:17:19;9.43;;;2.27;;
13704;SDS011;6924;52.122;9.952;2024-01-27T05:19:45;5.07;;;2.20;;
13704;SDS011;6924;52.122;9.952;2024-01-27T05:22:12;7.47;;;2.67;;
13704;SDS011;6924;52.122;9.952;2024-01-27T05:24:38;7.70;;;2.10;;
13704;SDS011;6924;52.122;9.952;2024-01-27T05:27:04;10.73;;;2.43;;
13704;SDS011;6924;52.122;9.952;2024-01-27T05:29:30;8.17;;;2.43;;
13704;SDS011;6924;52.122;9.952;2024-01-27T05:31:57;4.20;;;2.33;;
13704;SDS011;6924;52.122;9.952;2024-01-27T05:34:24;8.83;;;2.47;;
13704;SDS011;6924;52.122;9.952;2024-01-27T05:36:51;9.17;;;2.40;;
13704;SDS011;6924;52.122;9.952;2024-01-27T05:39:17;13.33;;;2.67;;
13704;SDS011;6924;52.122;9.952;2024-01-27T05:41:44;4.33;;;2.07;;
13704;SDS011;6924;52.122;9.952;2024-01-27T05:44:10;11.63;;;2.67;;
13704;SDS011;6924;52.122;9.952;2024-01-27T05:46:36;11.57;;;3.30;;
13704;SDS011;6924;52.122;9.952;2024-01-27T05:49:03;11.80;;;2.07;;
13704;SDS011;6924;52.122;9.952;2024-01-27T05:51:30;12.63;;;3.63;;
13704;SDS011;6924;52.122;9.952;2024-01-27T05:53:58;7.20;;;2.10;;
13704;SDS011;6924;52.122;9.952;2024-01-27T05:56:25;6.60;;;2.30;;
13704;SDS011;6924;52.122;9.952;2024-01-27T05:58:51;8.37;;;2.57;;
13704;SDS011;6924;52.122;9.952;2024-01-27T06:01:18;6.43;;;2.23;;
13704;SDS011;6924;52.122;9.952;2024-01-27T06:03:45;10.47;;;2.67;;
13704;SDS011;6924;52.122;9.952;2024-01-27T06:06:11;4.37;;;1.97;;
13704;SDS011;6924;52.122;9.952;2024-01-27T06:08:39;12.50;;;2.60;;
13704;SDS011;6924;52.122;9.952;2024-01-27T06:11:06;12.77;;;2.97;;
13704;SDS011;6924;52.122;9.952;2024-01-27T06:13:33;7.73;;;2.60;;
13704;SDS011;6924;52.122;9.952;2024-01-27T06:15:59;11.03;;;2.73;;
13704;SDS011;6924;52.122;9.952;2024-01-27T06:18:26;11.80;;;3.00;;
13704;SDS011;6924;52.122;9.952;2024-01-27T06:20:52;17.00;;;3.40;;
13704;SDS011;6924;52.122;9.952;2024-01-27T06:23:19;6.80;;;2.90;;
13704;SDS011;6924;52.122;9.952;2024-01-27T06:25:46;11.77;;;2.23;;
13704;SDS011;6924;52.122;9.952;2024-01-27T06:28:13;6.00;;;3.13;;
13704;SDS011;6924;52.122;9.952;2024-01-27T06:30:39;5.93;;;2.73;;
13704;SDS011;6924;52.122;9.952;2024-01-27T06:33:05;13.40;;;2.87;;
13704;SDS011;6924;52.122;9.952;2024-01-27T06:35:32;9.20;;;2.73;;
13704;SDS011;6924;52.122;9.952;2024-01-27T06:37:58;11.90;;;2.70;;
13704;SDS011;6924;52.122;9.952;2024-01-27T06:40:25;6.43;;;2.20;;
13704;SDS011;6924;52.122;9.952;2024-01-27T06:42:52;12.70;;;3.20;;
13704;SDS011;6924;52.122;9.952;2024-01-27T06:45:19;4.63;;;2.93;;
13704;SDS011;6924;52.122;9.952;2024-01-27T06:47:45;12.03;;;3.57;;
13704;SDS011;6924;52.122;9.952;2024-01-27T06:50:12;8.33;;;2.83;;
13704;SDS011;6924;52.122;9.952;2024-01-27T06:52:38;8.03;;;3.00;;
13704;SDS011;6924;52.122;9.952;2024-01-27T06:55:05;8.40;;;2.73;;
13704;SDS011;6924;52.122;9.952;2024-01-27T06:57:32;12.27;;;2.90;;
13704;SDS011;6924;52.122;9.952;2024-01-27T07:00:00;8.83;;;3.17;;
13704;SDS011;6924;52.122;9.952;2024-01-27T07:02:26;5.43;;;2.70;;
13704;SDS011;6924;52.122;9.952;2024-01-27T07:04:53;10.47;;;3.30;;
13704;SDS011;6924;52.122;9.952;2024-01-27T07:07:22;14.97;;;3.77;;
13704;SDS011;6924;52.122;9.952;2024-01-27T07:09:51;11.83;;;3.00;;
13704;SDS011;6924;52.122;9.952;2024-01-27T07:12:17;9.57;;;2.50;;
13704;SDS011;6924;52.122;9.952;2024-01-27T07:14:44;9.60;;;2.57;;
13704;SDS011;6924;52.122;9.952;2024-01-27T07:17:11;8.87;;;2.60;;
13704;SDS011;6924;52.122;9.952;2024-01-27T07:19:38;6.87;;;2.57;;
13704;SDS011;6924;52.122;9.952;2024-01-27T07:22:04;14.83;;;3.07;;
13704;SDS011;6924;52.122;9.952;2024-01-27T07:24:32;7.27;;;2.60;;
13704;SDS011;6924;52.122;9.952;2024-01-27T07:26:59;14.63;;;3.20;;
13704;SDS011;6924;52.122;9.952;2024-01-27T07:29:26;13.63;;;2.77;;
13704;SDS011;6924;52.122;9.952;2024-01-27T07:31:52;8.17;;;2.60;;
13704;SDS011;6924;52.122;9.952;2024-01-27T07:34:20;6.53;;;2.70;;
13704;SDS011;6924;52.122;9.952;2024-01-27T07:36:46;9.40;;;2.83;;
13704;SDS011;6924;52.122;9.952;2024-01-27T07:39:14;13.93;;;3.17;;
13704;SDS011;6924;52.122;9.952;2024-01-27T07:41:40;10.87;;;2.47;;
13704;SDS011;6924;52.122;9.952;2024-01-27T07:44:08;11.47;;;3.70;;
13704;SDS011;6924;52.122;9.952;2024-01-27T07:46:35;9.77;;;3.23;;
13704;SDS011;6924;52.122;9.952;2024-01-27T07:49:01;14.23;;;3.83;;
13704;SDS011;6924;52.122;9.952;2024-01-27T07:51:30;9.43;;;3.37;;
13704;SDS011;6924;52.122;9.952;2024-01-27T07:53:56;8.17;;;3.17;;
13704;SDS011;6924;52.122;9.952;2024-01-27T07:56:23;16.57;;;3.87;;
13704;SDS011;6924;52.122;9.952;2024-01-27T07:58:49;10.03;;;2.93;;
13704;SDS011;6924;52.122;9.952;2024-01-27T08:01:15;13.23;;;3.47;;
13704;SDS011;6924;52.122;9.952;2024-01-27T08:03:42;9.80;;;2.73;;
13704;SDS011;6924;52.122;9.952;2024-01-27T08:06:10;7.90;;;2.80;;
13704;SDS011;6924;52.122;9.952;2024-01-27T08:08:44;8.17;;;3.37;;
13704;SDS011;6924;52.122;9.952;2024-01-27T08:11:11;9.17;;;3.73;;
13704;SDS011;6924;52.122;9.952;2024-01-27T08:13:37;7.20;;;3.63;;
13704;SDS011;6924;52.122;9.952;2024-01-27T08:16:04;8.50;;;3.80;;
13704;SDS011;6924;52.122;9.952;2024-01-27T08:18:31;16.60;;;4.13;;
13704;SDS011;6924;52.122;9.952;2024-01-27T08:20:57;7.03;;;3.33;;
13704;SDS011;6924;52.122;9.952;2024-01-27T08:23:23;8.87;;;3.07;;
13704;SDS011;6924;52.122;9.952;2024-01-27T08:25:51;7.03;;;3.10;;
13704;SDS011;6924;52.122;9.952;2024-01-27T08:28:17;6.40;;;3.43;;
13704;SDS011;6924;52.122;9.952;2024-01-27T08:30:44;10.67;;;3.53;;
13704;SDS011;6924;52.122;9.952;2024-01-27T08:33:11;11.97;;;4.70;;
13704;SDS011;6924;52.122;9.952;2024-01-27T08:35:37;11.13;;;4.50;;
13704;SDS011;6924;52.122;9.952;2024-01-27T08:38:03;5.70;;;3.43;;
13704;SDS011;6924;52.122;9.952;2024-01-27T08:40:31;13.90;;;4.37;;
13704;SDS011;6924;52.122;9.952;2024-01-27T08:42:59;6.43;;;3.87;;
13704;SDS011;6924;52.122;9.952;2024-01-27T08:45:25;7.27;;;3.53;;
13704;SDS011;6924;52.122;9.952;2024-01-27T08:47:51;13.90;;;4.80;;
13704;SDS011;6924;52.122;9.952;2024-01-27T08:50:18;10.07;;;3.87;;
13704;SDS011;6924;52.122;9.952;2024-01-27T08:52:45;12.60;;;4.17;;
13704;SDS011;6924;52.122;9.952;2024-01-27T08:55:12;8.83;;;4.37;;
13704;SDS011;6924;52.122;9.952;2024-01-27T08:57:38;8.57;;;4.17;;
13704;SDS011;6924;52.122;9.952;2024-01-27T09:00:07;7.73;;;3.83;;
13704;SDS011;6924;52.122;9.952;2024-01-27T09:02:34;8.93;;;4.80;;
13704;SDS011;6924;52.122;9.952;2024-01-27T09:05:00;7.67;;;4.20;;
13704;SDS011;6924;52.122;9.952;2024-01-27T09:07:28;11.50;;;4.17;;
13704;SDS011;6924;52.122;9.952;2024-01-27T09:09:55;9.17;;;4.80;;
13704;SDS011;6924;52.122;9.952;2024-01-27T09:12:21;10.23;;;4.30;;
13704;SDS011;6924;52.122;9.952;2024-01-27T09:14:47;13.60;;;4.70;;
13704;SDS011;6924;52.122;9.952;2024-01-27T09:17:15;13.93;;;5.67;;
13704;SDS011;6924;52.122;9.952;2024-01-27T09:19:41;10.37;;;4.90;;
13704;SDS011;6924;52.122;9.952;2024-01-27T09:22:08;16.03;;;5.90;;
13704;SDS011;6924;52.122;9.952;2024-01-27T09:24:34;9.83;;;5.03;;
13704;SDS011;6924;52.122;9.952;2024-01-27T09:27:01;10.77;;;4.50;;
13704;SDS011;6924;52.122;9.952;2024-01-27T09:29:29;7.47;;;4.80;;
13704;SDS011;6924;52.122;9.952;2024-01-27T09:31:55;8.40;;;5.03;;
13704;SDS011;6924;52.122;9.952;2024-01-27T09:34:23;8.27;;;4.00;;
13704;SDS011;6924;52.122;9.952;2024-01-27T09:36:50;9.57;;;4.93;;
13704;SDS011;6924;52.122;9.952;2024-01-27T09:39:16;8.70;;;5.00;;
13704;SDS011;6924;52.122;9.952;2024-01-27T09:41:42;12.10;;;5.13;;
13704;SDS011;6924;52.122;9.952;2024-01-27T09:44:10;13.07;;;5.77;;
13704;SDS011;6924;52.122;9.952;2024-01-27T09:46:38;11.40;;;5.33;;
13704;SDS011;6924;52.122;9.952;2024-01-27T09:49:04;13.57;;;5.73;;
13704;SDS011;6924;52.122;9.952;2024-01-27T09:51:33;14.20;;;6.17;;
13704;SDS011;6924;52.122;9.952;2024-01-27T09:54:00;13.03;;;5.70;;
13704;SDS011;6924;52.122;9.952;2024-01-27T09:56:26;11.87;;;5.50;;
13704;SDS011;6924;52.122;9.952;2024-01-27T09:58:53;11.57;;;6.53;;
13704;SDS011;6924;52.122;9.952;2024-01-27T10:01:20;10.10;;;6.17;;
13704;SDS011;6924;52.122;9.952;2024-01-27T10:03:47;9.63;;;6.60;;
13704;SDS011;6924;52.122;9.952;2024-01-27T10:06:14;12.07;;;6.17;;
13704;SDS011;6924;52.122;9.952;2024-01-27T10:08:41;13.83;;;6.07;;
13704;SDS011;6924;52.122;9.952;2024-01-27T10:11:17;16.07;;;5.73;;
13704;SDS011;6924;52.122;9.952;2024-01-27T10:13:52;8.90;;;5.23;;
13704;SDS011;6924;52.122;9.952;2024-01-27T10:16:20;7.80;;;5.03;;
13704;SDS011;6924;52.122;9.952;2024-01-27T10:18:58;13.23;;;6.17;;
13704;SDS011;6924;52.122;9.952;2024-01-27T10:21:25;11.53;;;6.17;;
13704;SDS011;6924;52.122;9.952;2024-01-27T10:23:53;10.73;;;6.23;;
13704;SDS011;6924;52.122;9.952;2024-01-27T10:26:20;11.83;;;6.43;;
13704;SDS011;6924;52.122;9.952;2024-01-27T10:28:51;13.17;;;5.43;;
13704;SDS011;6924;52.122;9.952;2024-01-27T10:31:18;18.20;;;5.87;;
13704;SDS011;6924;52.122;9.952;2024-01-27T10:33:51;20.20;;;5.97;;
13704;SDS011;6924;52.122;9.952;2024-01-27T10:36:18;8.60;;;5.23;;
13704;SDS011;6924;52.122;9.952;2024-01-27T10:38:44;9.10;;;5.37;;
13704;SDS011;6924;52.122;9.952;2024-01-27T10:41:12;11.77;;;6.33;;
13704;SDS011;6924;52.122;9.952;2024-01-27T10:43:47;9.17;;;5.37;;
13704;SDS011;6924;52.122;9.952;2024-01-27T10:46:16;11.23;;;6.07;;
13704;SDS011;6924;52.122;9.952;2024-01-27T10:48:47;10.63;;;5.07;;
13704;SDS011;6924;52.122;9.952;2024-01-27T10:51:17;7.20;;;5.50;;
13704;SDS011;6924;52.122;9.952;2024-01-27T10:53:48;10.37;;;5.83;;
13704;SDS011;6924;52.122;9.952;2024-01-27T10:56:19;8.50;;;5.10;;
13704;SDS011;6924;52.122;9.952;2024-01-27T10:58:46;7.40;;;4.57;;
13704;SDS011;6924;52.122;9.952;2024-01-27T11:01:15;10.83;;;4.57;;
13704;SDS011;6924;52.122;9.952;2024-01-27T11:03:44;12.33;;;4.87;;
13704;SDS011;6924;52.122;9.952;2024-01-27T11:06:13;11.00;;;4.87;;
13704;SDS011;6924;52.122;9.952;2024-01-27T11:08:40;11.70;;;5.40;;
13704;SDS011;6924;52.122;9.952;2024-01-27T11:11:07;9.47;;;4.97;;
13704;SDS011;6924;52.122;9.952;2024-01-27T11:13:35;11.93;;;5.33;;
13704;SDS011;6924;52.122;9.952;2024-01-27T11:16:03;10.97;;;4.67;;
13704;SDS011;6924;52.122;9.952;2024-01-27T11:18:30;13.20;;;4.10;;
13704;SDS011;6924;52.122;9.952;2024-01-27T11:20:58;7.27;;;4.73;;
13704;SDS011;6924;52.122;9.952;2024-01-27T11:23:31;10.50;;;3.93;;
13704;SDS011;6924;52.122;9.952;2024-01-27T11:26:02;7.83;;;4.63;;
13704;SDS011;6924;52.122;9.952;2024-01-27T11:28:29;10.87;;;4.00;;
13704;SDS011;6924;52.122;9.952;2024-01-27T11:30:57;5.43;;;3.87;;
13704;SDS011;6924;52.122;9.952;2024-01-27T11:33:24;8.03;;;4.10;;
13704;SDS011;6924;52.122;9.952;2024-01-27T11:35:59;9.77;;;4.67;;
13704;SDS011;6924;52.122;9.952;2024-01-27T11:38:26;10.50;;;4.13;;
13704;SDS011;6924;52.122;9.952;2024-01-27T11:40:52;7.87;;;4.53;;
13704;SDS011;6924;52.122;9.952;2024-01-27T11:43:18;7.00;;;3.60;;
13704;SDS011;6924;52.122;9.952;2024-01-27T11:45:54;11.93;;;3.40;;
13704;SDS011;6924;52.122;9.952;2024-01-27T11:48:23;7.37;;;4.50;;
13704;SDS011;6924;52.122;9.952;2024-01-27T11:50:59;7.33;;;4.20;;
13704;SDS011;6924;52.122;9.952;2024-01-27T11:53:28;9.03;;;3.30;;
13704;SDS011;6924;52.122;9.952;2024-01-27T11:55:55;11.63;;;4.10;;
13704;SDS011;6924;52.122;9.952;2024-01-27T11:58:21;12.10;;;4.70;;
13704;SDS011;6924;52.122;9.952;2024-01-27T12:00:48;11.80;;;3.57;;
13704;SDS011;6924;52.122;9.952;2024-01-27T12:03:16;12.00;;;5.67;;
13704;SDS011;6924;52.122;9.952;2024-01-27T12:05:42;9.00;;;3.37;;
13704;SDS011;6924;52.122;9.952;2024-01-27T12:08:09;17.53;;;3.63;;
13704;SDS011;6924;52.122;9.952;2024-01-27T12:10:35;7.03;;;3.20;;
13704;SDS011;6924;52.122;9.952;2024-01-27T12:13:02;7.73;;;3.77;;
13704;SDS011;6924;52.122;9.952;2024-01-27T12:15:28;7.80;;;2.70;;
13704;SDS011;6924;52.122;9.952;2024-01-27T12:17:55;6.07;;;2.50;;
13704;SDS011;6924;52.122;9.952;2024-01-27T12:20:23;4.43;;;2.60;;
13704;SDS011;6924;52.122;9.952;2024-01-27T12:22:49;7.90;;;2.97;;
13704;SDS011;6924;52.122;9.952;2024-01-27T12:25:17;9.93;;;2.47;;
13704;SDS011;6924;52.122;9.952;2024-01-27T12:27:43;15.10;;;3.07;;
13704;SDS011;6924;52.122;9.952;2024-01-27T12:30:10;9.43;;;1.80;;
13704;SDS011;6924;52.122;9.952;2024-01-27T12:32:38;5.53;;;2.27;;
13704;SDS011;6924;52.122;9.952;2024-01-27T12:35:04;6.90;;;2.00;;
13704;SDS011;6924;52.122;9.952;2024-01-27T12:37:33;6.03;;;1.70;;
13704;SDS011;6924;52.122;9.952;2024-01-27T12:40:00;6.00;;;2.17;;
13704;SDS011;6924;52.122;9.952;2024-01-27T12:42:26;7.23;;;1.80;;
13704;SDS011;6924;52.122;9.952;2024-01-27T12:44:53;4.57;;;2.30;;
13704;SDS011;6924;52.122;9.952;2024-01-27T12:47:19;4.33;;;2.03;;
13704;SDS011;6924;52.122;9.952;2024-01-27T12:49:46;5.90;;;1.70;;
13704;SDS011;6924;52.122;9.952;2024-01-27T12:52:12;10.07;;;1.93;;
13704;SDS011;6924;52.122;9.952;2024-01-27T12:54:40;6.13;;;1.40;;
13704;SDS011;6924;52.122;9.952;2024-01-27T12:57:07;11.03;;;1.87;;
13704;SDS011;6924;52.122;9.952;2024-01-27T12:59:33;6.83;;;1.73;;
13704;SDS011;6924;52.122;9.952;2024-01-27T13:02:00;5.57;;;1.63;;
13704;SDS011;6924;52.122;9.952;2024-01-27T13:04:26;5.87;;;1.60;;
13704;SDS011;6924;52.122;9.952;2024-01-27T13:06:53;5.50;;;1.77;;
13704;SDS011;6924;52.122;9.952;2024-01-27T13:09:19;6.57;;;1.70;;
13704;SDS011;6924;52.122;9.952;2024-01-27T13:11:47;10.83;;;1.90;;
13704;SDS011;6924;52.122;9.952;2024-01-27T13:14:14;8.07;;;2.20;;
13704;SDS011;6924;52.122;9.952;2024-01-27T13:16:42;6.03;;;1.70;;
13704;SDS011;6924;52.122;9.952;2024-01-27T13:19:09;3.23;;;1.10;;
13704;SDS011;6924;52.122;9.952;2024-01-27T13:21:35;9.07;;;1.47;;
13704;SDS011;6924;52.122;9.952;2024-01-27T13:24:02;4.23;;;1.47;;
13704;SDS011;6924;52.122;9.952;2024-01-27T13:26:29;7.80;;;1.43;;
13704;SDS011;6924;52.122;9.952;2024-01-27T13:28:58;3.77;;;1.43;;
13704;SDS011;6924;52.122;9.952;2024-01-27T13:31:24;5.60;;;2.17;;
13704;SDS011;6924;52.122;9.952;2024-01-27T13:33:51;4.80;;;1.43;;
13704;SDS011;6924;52.122;9.952;2024-01-27T13:36:18;5.77;;;1.37;;
13704;SDS011;6924;52.122;9.952;2024-01-27T13:38:44;7.13;;;2.23;;
13704;SDS011;6924;52.122;9.952;2024-01-27T13:41:11;5.40;;;1.73;;
13704;SDS011;6924;52.122;9.952;2024-01-27T13:43:37;6.10;;;2.10;;
13704;SDS011;6924;52.122;9.952;2024-01-27T13:46:05;5.70;;;1.70;;
13704;SDS011;6924;52.122;9.952;2024-01-27T13:48:31;8.63;;;2.20;;
13704;SDS011;6924;52.122;9.952;2024-01-27T13:50:58;6.27;;;1.87;;
13704;SDS011;6924;52.122;9.952;2024-01-27T13:53:24;6.00;;;2.00;;
13704;SDS011;6924;52.122;9.952;2024-01-27T13:55:51;4.13;;;1.40;;
13704;SDS011;6924;52.122;9.952;2024-01-27T13:58:18;3.20;;;1.47;;
13704;SDS011;6924;52.122;9.952;2024-01-27T14:00:44;8.07;;;1.97;;
13704;SDS011;6924;52.122;9.952;2024-01-27T14:03:12;3.83;;;1.77;;
13704;SDS011;6924;52.122;9.952;2024-01-27T14:05:38;6.70;;;1.93;;
13704;SDS011;6924;52.122;9.952;2024-01-27T14:08:06;5.77;;;2.40;;
13704;SDS011;6924;52.122;9.952;2024-01-27T14:10:34;4.00;;;1.63;;
13704;SDS011;6924;52.122;9.952;2024-01-27T14:13:01;15.93;;;2.23;;
13704;SDS011;6924;52.122;9.952;2024-01-27T14:15:29;3.90;;;1.50;;
13704;SDS011;6924;52.122;9.952;2024-01-27T14:17:56;6.80;;;1.60;;
13704;SDS011;6924;52.122;9.952;2024-01-27T14:20:24;3.73;;;2.23;;
13704;SDS011;6924;52.122;9.952;2024-01-27T14:22:54;4.57;;;1.20;;
13704;SDS011;6924;52.122;9.952;2024-01-27T14:25:21;6.50;;;1.70;;
13704;SDS011;6924;52.122;9.952;2024-01-27T14:27:48;6.53;;;2.10;;
13704;SDS011;6924;52.122;9.952;2024-01-27T14:30:14;3.93;;;1.73;;
13704;SDS011;6924;52.122;9.952;2024-01-27T14:32:41;6.20;;;2.00;;
13704;SDS011;6924;52.122;9.952;2024-01-27T14:35:09;9.33;;;2.00;;
13704;SDS011;6924;52.122;9.952;2024-01-27T14:37:37;7.07;;;1.80;;
13704;SDS011;6924;52.122;9.952;2024-01-27T14:40:04;4.83;;;1.50;;
13704;SDS011;6924;52.122;9.952;2024-01-27T14:42:31;4.17;;;1.50;;
13704;SDS011;6924;52.122;9.952;2024-01-27T14:44:57;6.43;;;2.27;;
13704;SDS011;6924;52.122;9.952;2024-01-27T14:47:24;4.40;;;1.70;;
13704;SDS011;6924;52.122;9.952;2024-01-27T14:49:50;5.10;;;1.70;;
13704;SDS011;6924;52.122;9.952;2024-01-27T14:52:16;6.47;;;1.50;;
13704;SDS011;6924;52.122;9.952;2024-01-27T14:54:44;6.67;;;1.70;;
13704;SDS011;6924;52.122;9.952;2024-01-27T14:57:10;4.00;;;1.73;;